createdAt,value
2019-06-20T00:01:51.325Z,20.80
2019-06-20T00:04:19.884Z,20.80
2019-06-20T00:06:48.394Z,20.80
2019-06-20T00:09:16.887Z,20.80
2019-06-20T00:11:45.495Z,20.70
2019-06-20T00:14:14.073Z,20.70
2019-06-20T00:16:42.577Z,20.60
2019-06-20T00:19:11.170Z,20.60
2019-06-20T00:21:39.673Z,20.50
2019-06-20T00:24:08.210Z,20.50
2019-06-20T00:26:36.697Z,20.50
2019-06-20T00:29:05.243Z,20.50
2019-06-20T00:31:33.777Z,20.60
2019-06-20T00:34:02.391Z,20.60
2019-06-20T00:36:30.888Z,20.70
2019-06-20T00:38:59.475Z,20.50
2019-06-20T00:41:28.029Z,20.50
2019-06-20T00:43:56.546Z,20.50
2019-06-20T00:46:25.074Z,20.40
2019-06-20T00:48:53.670Z,20.30
2019-06-20T00:51:22.344Z,20.30
2019-06-20T00:53:50.951Z,20.20
2019-06-20T00:56:19.518Z,20.10
2019-06-20T00:58:48.371Z,20.00
2019-06-20T01:01:16.862Z,20.10
2019-06-20T01:03:45.400Z,20.20
2019-06-20T01:06:13.961Z,20.10
2019-06-20T01:08:42.479Z,20.10
2019-06-20T01:11:11.072Z,20.10
2019-06-20T01:13:39.561Z,20.10
2019-06-20T01:16:08.123Z,20.10
2019-06-20T01:18:36.670Z,20.10
2019-06-20T01:21:05.226Z,20.10
2019-06-20T01:23:33.725Z,20.10
2019-06-20T01:26:02.490Z,20.10
2019-06-20T01:28:31.046Z,20.10
2019-06-20T01:30:59.563Z,20.10
2019-06-20T01:33:28.082Z,20.10
2019-06-20T01:35:56.639Z,20.10
2019-06-20T01:38:25.135Z,20.10
2019-06-20T01:40:53.664Z,20.10
2019-06-20T01:43:22.216Z,20.00
2019-06-20T01:45:50.703Z,20.00
2019-06-20T01:48:19.200Z,20.00
2019-06-20T01:50:47.690Z,20.00
2019-06-20T01:53:16.210Z,19.90
2019-06-20T01:55:44.737Z,19.90
2019-06-20T01:58:13.341Z,20.00
2019-06-20T02:00:49.846Z,20.00
2019-06-20T02:03:19.867Z,20.00
2019-06-20T02:05:48.546Z,19.90
2019-06-20T02:08:17.034Z,19.90
2019-06-20T02:10:45.714Z,19.90
2019-06-20T02:13:14.213Z,19.80
2019-06-20T02:15:42.766Z,19.80
2019-06-20T02:18:11.269Z,19.80
2019-06-20T02:20:57.638Z,19.80
2019-06-20T02:23:26.226Z,19.80
2019-06-20T02:25:54.822Z,19.70
2019-06-20T02:28:25.250Z,19.70
2019-06-20T02:30:53.812Z,19.60
2019-06-20T02:33:22.377Z,19.60
2019-06-20T02:35:50.874Z,19.60
2019-06-20T02:38:19.367Z,19.40
2019-06-20T02:40:47.954Z,19.50
2019-06-20T02:43:16.547Z,19.50
2019-06-20T02:45:45.114Z,19.50
2019-06-20T02:48:13.605Z,19.50
2019-06-20T02:50:42.280Z,19.40
2019-06-20T02:53:10.775Z,19.40
2019-06-20T02:55:39.385Z,19.30
2019-06-20T02:58:07.943Z,19.20
2019-06-20T03:00:42.373Z,19.20
2019-06-20T03:03:10.941Z,19.20
2019-06-20T03:05:39.803Z,19.10
2019-06-20T03:08:08.305Z,19.10
2019-06-20T03:10:36.786Z,19.10
2019-06-20T03:13:05.337Z,19.10
2019-06-20T03:15:33.884Z,19.10
2019-06-20T03:18:02.455Z,19.00
2019-06-20T03:20:31.034Z,19.10
2019-06-20T03:22:59.530Z,19.00
2019-06-20T03:25:28.090Z,19.10
2019-06-20T03:27:56.651Z,19.00
2019-06-20T03:30:25.455Z,19.00
2019-06-20T03:32:54.090Z,19.10
2019-06-20T03:35:22.673Z,19.00
2019-06-20T03:37:51.172Z,19.00
2019-06-20T03:40:20.395Z,18.90
2019-06-20T03:42:48.890Z,18.90
2019-06-20T03:45:17.572Z,18.80
2019-06-20T03:47:46.133Z,18.90
2019-06-20T03:50:14.967Z,18.90
2019-06-20T03:52:43.655Z,18.90
2019-06-20T03:55:12.591Z,19.00
2019-06-20T03:57:41.238Z,18.90
2019-06-20T04:00:10.486Z,18.90
2019-06-20T04:02:38.970Z,19.00
2019-06-20T04:05:07.670Z,19.00
2019-06-20T04:07:36.178Z,19.00
2019-06-20T04:10:06.034Z,19.00
2019-06-20T04:12:34.545Z,19.00
2019-06-20T04:15:17.863Z,18.90
2019-06-20T04:17:33.343Z,18.90
2019-06-20T04:20:01.824Z,18.80
2019-06-20T04:22:30.330Z,18.90
2019-06-20T04:24:58.823Z,18.80
2019-06-20T04:27:27.318Z,18.80
2019-06-20T04:29:55.868Z,18.80
2019-06-20T04:32:24.369Z,18.80
2019-06-20T04:34:52.861Z,18.80
2019-06-20T04:37:21.367Z,18.70
2019-06-20T04:39:49.870Z,18.70
2019-06-20T04:42:18.918Z,18.70
2019-06-20T04:44:47.671Z,18.70
2019-06-20T04:47:16.955Z,18.60
2019-06-20T04:49:45.540Z,18.70
2019-06-20T04:52:14.047Z,18.70
2019-06-20T04:54:42.545Z,18.80
2019-06-20T04:57:11.059Z,18.80
2019-06-20T04:59:39.657Z,18.90
2019-06-20T05:02:08.261Z,19.00
2019-06-20T05:04:36.833Z,19.00
2019-06-20T05:07:17.563Z,19.00
2019-06-20T05:09:46.314Z,19.00
2019-06-20T05:12:14.806Z,19.10
2019-06-20T05:14:44.589Z,19.10
2019-06-20T05:17:13.073Z,19.20
2019-06-20T05:19:41.566Z,19.10
2019-06-20T05:22:10.074Z,19.10
2019-06-20T05:24:38.618Z,19.10
2019-06-20T05:27:07.165Z,19.00
2019-06-20T05:29:35.658Z,19.00
2019-06-20T05:32:04.150Z,19.10
2019-06-20T05:34:32.649Z,19.10
2019-06-20T05:37:01.452Z,19.10
2019-06-20T05:39:29.967Z,19.20
2019-06-20T05:41:58.563Z,19.30
2019-06-20T05:44:27.067Z,19.40
2019-06-20T05:47:11.404Z,19.50
2019-06-20T05:49:25.799Z,19.60
2019-06-20T05:51:54.314Z,19.80
2019-06-20T05:54:22.803Z,19.90
2019-06-20T05:56:51.300Z,19.90
2019-06-20T05:59:20.054Z,20.00
2019-06-20T06:01:48.555Z,20.20
2019-06-20T06:04:17.061Z,20.50
2019-06-20T06:06:45.570Z,20.80
2019-06-20T06:09:14.156Z,20.80
2019-06-20T06:11:42.675Z,20.70
2019-06-20T06:14:11.235Z,20.80
2019-06-20T06:16:43.883Z,20.90
2019-06-20T06:19:10.175Z,20.90
2019-06-20T06:21:38.820Z,20.80
2019-06-20T06:24:07.324Z,20.70
2019-06-20T06:26:36.022Z,20.80
2019-06-20T06:29:04.697Z,20.90
2019-06-20T06:31:33.340Z,20.90
2019-06-20T06:34:01.906Z,21.10
2019-06-20T06:36:30.478Z,21.10
2019-06-20T06:38:58.968Z,21.20
2019-06-20T06:41:27.484Z,21.20
2019-06-20T06:43:55.978Z,21.10
2019-06-20T06:46:24.630Z,20.90
2019-06-20T06:48:53.262Z,20.80
2019-06-20T06:51:21.778Z,20.80
2019-06-20T06:53:50.263Z,20.60
2019-06-20T06:56:20.194Z,20.70
2019-06-20T06:58:48.767Z,20.80
2019-06-20T07:01:17.354Z,20.90
2019-06-20T07:03:45.866Z,20.90
2019-06-20T07:06:14.448Z,21.00
2019-06-20T07:08:42.974Z,21.00
2019-06-20T07:11:11.491Z,21.00
2019-06-20T07:13:39.996Z,21.00
2019-06-20T07:16:08.556Z,20.80
2019-06-20T07:18:37.041Z,20.70
2019-06-20T07:21:05.547Z,20.70
2019-06-20T07:23:34.593Z,20.70
2019-06-20T07:26:03.083Z,20.80
2019-06-20T07:28:31.589Z,20.90
2019-06-20T07:31:00.111Z,20.90
2019-06-20T07:33:28.676Z,20.90
2019-06-20T07:35:57.164Z,20.90
2019-06-20T07:38:25.672Z,21.00
2019-06-20T07:40:54.290Z,21.00
2019-06-20T07:43:23.010Z,21.10
2019-06-20T07:46:02.077Z,21.00
2019-06-20T07:48:21.710Z,21.00
2019-06-20T07:50:50.493Z,20.90
2019-06-20T07:53:19.039Z,20.90
2019-06-20T07:55:47.605Z,20.90
2019-06-20T07:58:16.143Z,20.90
2019-06-20T08:00:44.703Z,21.00
2019-06-20T08:03:13.231Z,20.90
2019-06-20T08:05:41.782Z,20.90
2019-06-20T08:08:10.282Z,21.00
2019-06-20T08:10:38.793Z,20.90
2019-06-20T08:13:07.277Z,21.00
2019-06-20T08:15:35.798Z,21.00
2019-06-20T08:18:04.890Z,21.10
2019-06-20T08:20:34.918Z,21.10
2019-06-20T08:23:03.494Z,21.20
2019-06-20T08:25:32.062Z,21.20
2019-06-20T08:28:00.819Z,21.30
2019-06-20T08:30:34.842Z,21.40
2019-06-20T08:33:08.710Z,21.60
2019-06-20T08:35:34.094Z,21.60
2019-06-20T08:38:03.746Z,21.70
2019-06-20T08:40:36.227Z,21.70
2019-06-20T08:43:06.291Z,21.80
2019-06-20T08:45:36.909Z,21.70
2019-06-20T08:48:07.268Z,21.60
2019-06-20T08:50:36.564Z,21.50
2019-06-20T08:53:06.022Z,21.50
2019-06-20T08:55:35.112Z,21.70
2019-06-20T08:58:05.456Z,21.60
2019-06-20T09:00:36.323Z,21.80
2019-06-20T09:03:06.537Z,21.80
2019-06-20T09:05:35.517Z,21.90
2019-06-20T09:08:05.055Z,21.90
2019-06-20T09:10:39.446Z,22.00
2019-06-20T09:13:08.683Z,22.30
2019-06-20T09:15:37.267Z,22.50
2019-06-20T09:18:06.314Z,22.40
2019-06-20T09:20:35.191Z,22.40
2019-06-20T09:23:04.049Z,22.40
2019-06-20T09:25:32.609Z,22.30
2019-06-20T09:28:02.516Z,22.20
2019-06-20T09:30:31.521Z,22.10
2019-06-20T09:33:00.367Z,22.00
2019-06-20T09:35:28.857Z,22.00
2019-06-20T09:37:57.557Z,22.00
2019-06-20T09:40:26.399Z,21.90
2019-06-20T09:42:54.942Z,21.90
2019-06-20T09:45:23.874Z,21.90
2019-06-20T09:47:53.702Z,22.30
2019-06-20T09:50:22.714Z,22.80
2019-06-20T09:52:51.570Z,23.00
2019-06-20T09:55:21.571Z,23.30
2019-06-20T09:57:50.780Z,23.40
2019-06-20T10:00:23.715Z,23.30
2019-06-20T10:02:54.093Z,23.10
2019-06-20T10:05:22.966Z,23.40
2019-06-20T10:07:52.264Z,23.70
2019-06-20T10:10:24.159Z,23.80
2019-06-20T10:12:53.682Z,24.10
2019-06-20T10:15:34.219Z,24.10
2019-06-20T10:18:02.749Z,24.00
2019-06-20T10:20:31.313Z,23.80
2019-06-20T10:22:59.824Z,24.10
2019-06-20T10:25:28.375Z,24.40
2019-06-20T10:27:57.893Z,24.20
2019-06-20T10:30:27.334Z,24.00
2019-06-20T10:32:57.553Z,24.00
2019-06-20T10:35:26.539Z,24.20
2019-06-20T10:37:55.038Z,24.00
2019-06-20T10:40:24.015Z,24.10
2019-06-20T10:42:53.121Z,24.20
2019-06-20T10:45:23.614Z,24.30
2019-06-20T10:47:52.969Z,24.70
2019-06-20T10:50:22.780Z,24.60
2019-06-20T10:52:51.917Z,24.50
2019-06-20T10:55:20.909Z,24.30
2019-06-20T10:57:49.942Z,24.50
2019-06-20T11:00:30.335Z,24.90
2019-06-20T11:02:51.194Z,25.00
2019-06-20T11:05:19.937Z,24.80
2019-06-20T11:07:49.945Z,24.70
2019-06-20T11:20:22.415Z,25.30
2019-06-20T11:22:51.013Z,25.40
2019-06-20T11:25:20.034Z,25.80
2019-06-20T11:31:23.389Z,25.10
2019-06-20T11:33:51.962Z,25.20
2019-06-20T11:36:20.551Z,25.40
2019-06-20T11:38:49.218Z,25.20
2019-06-20T11:41:17.884Z,25.00
2019-06-20T11:43:46.859Z,24.70
2019-06-20T11:46:15.441Z,24.50
2019-06-20T11:48:43.973Z,24.60
2019-06-20T11:51:12.487Z,24.60
2019-06-20T11:53:40.983Z,24.70
2019-06-20T11:56:09.506Z,25.10
2019-06-20T11:58:38.092Z,25.10
2019-06-20T12:01:06.788Z,25.20
2019-06-20T12:03:35.371Z,25.30
2019-06-20T12:06:04.351Z,25.30
2019-06-20T12:08:32.933Z,25.50
2019-06-20T12:11:02.227Z,25.50
2019-06-20T12:13:30.743Z,25.60
2019-06-20T12:15:59.293Z,25.80
2019-06-20T12:18:27.779Z,25.70
2019-06-20T12:20:56.309Z,25.80
2019-06-20T12:23:24.790Z,26.20
2019-06-20T12:25:53.283Z,26.10
2019-06-20T12:28:21.802Z,25.70
2019-06-20T12:30:50.526Z,25.70
2019-06-20T12:33:19.112Z,25.40
2019-06-20T12:35:48.709Z,25.20
2019-06-20T12:38:17.275Z,25.00
2019-06-20T12:40:46.163Z,25.00
2019-06-20T12:43:14.862Z,24.90
2019-06-20T12:45:43.430Z,25.30
2019-06-20T12:48:11.929Z,25.40
2019-06-20T12:50:41.502Z,25.40
2019-06-20T12:53:10.668Z,25.50
2019-06-20T12:55:40.348Z,25.70
2019-06-20T12:58:09.015Z,25.90
2019-06-20T13:00:39.494Z,26.30
2019-06-20T13:03:08.353Z,26.60
2019-06-20T13:05:38.433Z,26.80
2019-06-20T13:08:07.311Z,27.00
2019-06-20T13:10:35.891Z,27.10
2019-06-20T13:13:04.391Z,26.80
2019-06-20T13:15:32.883Z,27.00
2019-06-20T13:18:01.488Z,27.00
2019-06-20T13:20:30.103Z,26.90
2019-06-20T13:22:58.627Z,26.40
2019-06-20T13:25:27.115Z,26.60
2019-06-20T13:27:55.661Z,26.80
2019-06-20T13:30:24.563Z,27.00
2019-06-20T13:32:53.055Z,26.80
2019-06-20T13:35:21.654Z,26.60
2019-06-20T13:37:50.284Z,26.10
2019-06-20T13:40:19.238Z,25.90
2019-06-20T13:42:48.126Z,25.90
2019-06-20T13:45:22.718Z,26.20
2019-06-20T13:47:51.595Z,26.40
2019-06-20T13:50:22.119Z,26.70
2019-06-20T13:52:51.322Z,26.70
2019-06-20T13:55:20.226Z,26.90
2019-06-20T13:57:49.202Z,27.10
2019-06-20T14:00:20.487Z,27.20
2019-06-20T14:02:51.070Z,27.00
2019-06-20T14:05:19.682Z,26.80
2019-06-20T14:07:51.853Z,26.80
2019-06-20T14:10:19.090Z,26.80
2019-06-20T14:12:48.760Z,26.60
2019-06-20T14:15:18.727Z,26.60
2019-06-20T14:17:47.578Z,26.40
2019-06-20T14:20:17.478Z,26.50
2019-06-20T14:22:46.005Z,26.60
2019-06-20T14:25:15.103Z,26.40
2019-06-20T14:27:43.965Z,26.40
2019-06-20T14:30:14.830Z,26.40
2019-06-20T14:32:43.434Z,26.30
2019-06-20T14:35:13.353Z,26.40
2019-06-20T14:37:43.425Z,26.80
2019-06-20T14:40:12.706Z,26.80
2019-06-20T14:42:42.772Z,27.00
2019-06-20T14:45:13.171Z,27.20
2019-06-20T14:47:41.747Z,27.10
2019-06-20T14:50:12.451Z,26.90
2019-06-20T14:52:41.019Z,27.10
2019-06-20T14:55:09.866Z,27.30
2019-06-20T14:57:38.375Z,27.10
2019-06-20T15:00:08.003Z,26.90
2019-06-20T15:02:38.788Z,27.10
2019-06-20T15:05:17.303Z,27.20
2019-06-20T15:07:47.357Z,27.00
2019-06-20T15:10:17.068Z,26.90
2019-06-20T15:12:47.435Z,27.00
2019-06-20T15:15:17.013Z,27.30
2019-06-20T15:17:49.157Z,27.20
2019-06-20T15:20:17.193Z,27.20
2019-06-20T15:22:47.411Z,27.10
2019-06-20T15:25:16.147Z,27.10
2019-06-20T15:27:47.147Z,27.10
2019-06-20T15:30:15.826Z,27.10
2019-06-20T15:32:55.840Z,26.90
2019-06-20T15:35:16.126Z,26.80
2019-06-20T15:37:44.692Z,26.60
2019-06-20T15:40:14.582Z,26.50
2019-06-20T15:42:43.143Z,26.40
2019-06-20T15:45:12.269Z,26.40
2019-06-20T15:47:40.831Z,26.40
2019-06-20T15:50:09.810Z,26.40
2019-06-20T15:52:38.299Z,26.50
2019-06-20T15:55:07.167Z,26.60
2019-06-20T15:57:35.786Z,26.40
2019-06-20T16:00:09.348Z,26.30
2019-06-20T16:02:37.910Z,26.20
2019-06-20T16:05:08.323Z,26.50
2019-06-20T16:07:37.172Z,26.30
2019-06-20T16:10:07.471Z,26.50
2019-06-20T16:12:36.053Z,26.60
2019-06-20T16:15:07.373Z,26.70
2019-06-20T16:17:35.934Z,26.90
2019-06-20T16:20:05.767Z,26.90
2019-06-20T16:22:34.264Z,26.90
2019-06-20T16:25:03.006Z,26.80
2019-06-20T16:27:31.613Z,26.80
2019-06-20T16:30:00.194Z,27.00
2019-06-20T16:32:28.734Z,27.00
2019-06-20T16:34:57.270Z,27.20
2019-06-20T16:37:25.824Z,27.30
2019-06-20T16:39:54.322Z,27.40
2019-06-20T16:42:22.892Z,27.50
2019-06-20T16:44:51.513Z,27.20
2019-06-20T16:47:20.084Z,27.20
2019-06-20T16:49:48.656Z,27.10
2019-06-20T16:52:17.277Z,27.20
2019-06-20T16:54:45.782Z,27.20
2019-06-20T16:57:14.357Z,27.00
2019-06-20T16:59:42.884Z,26.90
2019-06-20T17:02:11.435Z,26.90
2019-06-20T17:04:40.007Z,26.70
2019-06-20T17:07:08.568Z,26.60
2019-06-20T17:09:37.073Z,26.60
2019-06-20T17:12:05.593Z,26.50
2019-06-20T17:14:34.171Z,26.40
2019-06-20T17:17:02.748Z,26.30
2019-06-20T17:19:31.256Z,26.20
2019-06-20T17:21:59.779Z,25.90
2019-06-20T17:24:28.485Z,25.80
2019-06-20T17:26:57.180Z,25.80
2019-06-20T17:29:25.940Z,25.80
2019-06-20T17:31:57.379Z,25.70
2019-06-20T17:34:24.757Z,25.60
2019-06-20T17:36:53.246Z,25.70
2019-06-20T17:39:21.782Z,25.70
2019-06-20T17:41:55.220Z,25.60
2019-06-20T17:44:20.507Z,25.60
2019-06-20T17:46:49.120Z,25.40
2019-06-20T17:49:17.684Z,25.30
2019-06-20T17:51:46.175Z,25.30
2019-06-20T17:54:14.683Z,25.20
2019-06-20T17:56:43.359Z,25.20
2019-06-20T17:59:11.869Z,25.10
2019-06-20T18:01:40.460Z,25.10
2019-06-20T18:04:13.657Z,25.10
2019-06-20T18:06:39.333Z,25.10
2019-06-20T18:09:08.087Z,25.10
2019-06-20T18:11:36.677Z,25.10
2019-06-20T18:14:05.331Z,25.00
2019-06-20T18:16:33.859Z,25.00
2019-06-20T18:19:02.354Z,24.90
2019-06-20T18:21:31.059Z,24.90
2019-06-20T18:23:59.633Z,24.80
2019-06-20T18:26:28.183Z,24.80
2019-06-20T18:28:56.896Z,24.80
2019-06-20T18:31:25.397Z,24.70
2019-06-20T18:33:53.994Z,24.70
2019-06-20T18:36:22.523Z,24.60
2019-06-20T18:38:51.139Z,24.70
2019-06-20T18:41:19.701Z,24.70
2019-06-20T18:43:48.367Z,24.70
2019-06-20T18:46:16.996Z,24.60
2019-06-20T18:48:45.572Z,24.50
2019-06-20T18:51:14.435Z,24.50
2019-06-20T18:53:43.474Z,24.30
2019-06-20T18:56:12.213Z,24.10
2019-06-20T18:58:40.722Z,23.50
2019-06-20T19:01:09.301Z,23.00
2019-06-20T19:03:37.876Z,22.60
2019-06-20T19:06:06.484Z,22.30
2019-06-20T19:08:35.058Z,22.10
2019-06-20T19:11:03.656Z,22.10
2019-06-20T19:13:32.271Z,22.20
2019-06-20T19:16:00.831Z,22.20
2019-06-20T19:18:29.418Z,22.20
2019-06-20T19:20:57.927Z,22.30
2019-06-20T19:23:26.474Z,22.40
2019-06-20T19:25:55.089Z,22.50
2019-06-20T19:28:23.657Z,22.40
2019-06-20T19:30:52.761Z,22.50
2019-06-20T19:33:21.337Z,22.60
2019-06-20T19:35:49.832Z,22.60
2019-06-20T19:38:18.416Z,22.60
2019-06-20T19:40:48.804Z,22.60
2019-06-20T19:43:17.556Z,22.40
2019-06-20T19:45:46.520Z,22.40
2019-06-20T19:48:15.505Z,22.20
2019-06-20T19:50:44.656Z,22.20
2019-06-20T19:53:13.583Z,22.30
2019-06-20T19:55:42.427Z,22.30
2019-06-20T19:58:11.092Z,22.30
2019-06-20T20:00:39.720Z,22.20
2019-06-20T20:03:08.518Z,22.20
2019-06-20T20:05:37.199Z,22.20
2019-06-20T20:08:06.286Z,22.10
2019-06-20T20:10:45.891Z,22.00
2019-06-20T20:13:15.549Z,22.10
2019-06-20T20:15:45.146Z,22.00
2019-06-20T20:18:14.730Z,22.00
2019-06-20T20:20:47.944Z,22.00
2019-06-20T20:23:17.267Z,22.00
2019-06-20T20:25:45.841Z,21.90
2019-06-20T20:28:14.588Z,21.70
2019-06-20T20:30:43.123Z,21.70
2019-06-20T20:33:11.784Z,21.60
2019-06-20T20:35:40.302Z,21.60
2019-06-20T20:38:08.815Z,21.70
2019-06-20T20:40:37.346Z,21.70
2019-06-20T20:43:05.913Z,21.50
2019-06-20T20:45:34.442Z,21.50
2019-06-20T20:48:03.031Z,21.50
2019-06-20T20:50:31.545Z,21.40
2019-06-20T20:53:00.066Z,21.30
2019-06-20T20:55:28.812Z,21.30
2019-06-20T20:57:57.409Z,21.30
2019-06-20T21:00:57.982Z,21.20
2019-06-20T21:03:26.520Z,21.20
2019-06-20T21:05:55.112Z,21.20
2019-06-20T21:08:23.639Z,21.20
2019-06-20T21:10:52.250Z,21.10
2019-06-20T21:13:22.213Z,21.10
2019-06-20T21:15:50.726Z,21.10
2019-06-20T21:18:19.320Z,21.10
2019-06-20T21:20:47.838Z,21.10
2019-06-20T21:23:16.342Z,21.10
2019-06-20T21:25:44.855Z,21.10
2019-06-20T21:28:13.361Z,21.10
2019-06-20T21:30:41.976Z,20.90
2019-06-20T21:33:10.522Z,20.90
2019-06-20T21:35:39.107Z,20.80
2019-06-20T21:38:07.628Z,20.80
2019-06-20T21:40:36.195Z,20.70
2019-06-20T21:43:04.919Z,20.80
2019-06-20T21:45:33.415Z,20.70
2019-06-20T21:48:01.980Z,20.60
2019-06-20T21:50:30.577Z,20.60
2019-06-20T21:52:59.218Z,20.60
2019-06-20T21:55:27.975Z,20.50
2019-06-20T21:57:56.699Z,20.60
2019-06-20T22:00:30.115Z,20.60
2019-06-20T22:02:57.925Z,20.50
2019-06-20T22:05:26.422Z,20.50
2019-06-20T22:07:55.046Z,20.40
2019-06-20T22:10:23.604Z,20.40
2019-06-20T22:12:52.124Z,20.20
2019-06-20T22:15:20.751Z,20.20
2019-06-20T22:17:49.626Z,20.30
2019-06-20T22:20:18.588Z,20.30
2019-06-20T22:22:47.176Z,20.30
2019-06-20T22:25:16.304Z,20.30
2019-06-20T22:27:44.938Z,20.30
2019-06-20T22:30:14.892Z,20.30
2019-06-20T22:32:43.383Z,20.30
2019-06-20T22:35:12.303Z,20.30
2019-06-20T22:37:40.858Z,20.30
2019-06-20T22:40:10.265Z,20.30
2019-06-20T22:42:38.777Z,20.30
2019-06-20T22:45:08.342Z,20.20
2019-06-20T22:47:37.351Z,20.20
2019-06-20T22:50:09.627Z,20.10
2019-06-20T22:52:38.259Z,20.10
2019-06-20T22:55:06.896Z,20.00
2019-06-20T22:57:35.391Z,20.10
2019-06-20T23:00:07.126Z,19.90
2019-06-20T23:02:35.692Z,19.90
2019-06-20T23:05:05.235Z,20.00
2019-06-20T23:07:33.864Z,19.90
2019-06-20T23:10:10.453Z,19.90
2019-06-20T23:12:32.727Z,20.00
2019-06-20T23:15:01.277Z,19.90
2019-06-20T23:17:29.866Z,19.80
2019-06-20T23:19:58.461Z,19.80
2019-06-20T23:22:27.018Z,19.80
2019-06-20T23:24:55.512Z,19.80
2019-06-20T23:27:25.407Z,19.90
2019-06-20T23:29:53.894Z,19.80
2019-06-20T23:32:22.453Z,19.80
2019-06-20T23:34:51.036Z,19.70
2019-06-20T23:37:19.566Z,19.60
2019-06-20T23:39:48.109Z,19.60
2019-06-20T23:42:16.611Z,19.50
2019-06-20T23:44:45.187Z,19.50
2019-06-20T23:47:13.810Z,19.50
2019-06-20T23:49:42.340Z,19.40
2019-06-20T23:52:15.509Z,19.40
2019-06-20T23:54:44.174Z,19.40
2019-06-20T23:57:13.967Z,19.50
2019-06-20T23:59:45.423Z,19.40
